Devils Elbow, Missouri
Current Conditions -  °F | °C
As of 11:58 PM on Thursday 30 Oct 2014 (Local Time) from KTBN Reporting Station
Overcast Overcast  
Wind Chill: 45°   Ceiling: 8500
Heat Index: 48°   Visibility: 10mi
Dew Point: 46°   Wind: 6mph
Humidity: 95%   Direction: 310°NW
Pressure: 30.06"   Gusts: NA
Location:  37.85°N, 92.06°W
Report Text: KTBN 310458Z AUTO 31005KT 10SM OVC085 09/08 A3006 RMK AO2 SLP183 T00870079
Loading
Personal Weather Stations






























Interactive Weather Map
Tropical Storm Tracking
New forecast layout! Learn more

10-Day Weather Forecast

Advertisements
Track Severe Weather on mobile